Time;durP1;ratioP1;P1;durP2;ratioP2;P2;SDS_P1;SDS_P2;PMS_P1;PMS_P2;Temp;Humidity;BMP_temperature;BMP_pressure;BME280_temperature;BME280_humidity;BME280_pressure;Samples;Min_cycle;Max_cycle;Signal;HPM_P1;HPM_P2
2021/09/22 00:00:01;;;;;;;15.10;10.57;;;14.80;99.90;;;;;;5014656;28;20472;-48
2021/09/22 00:02:27;;;;;;;14.77;10.00;;;14.70;99.90;;;;;;5015214;28;20820;-48
2021/09/22 00:04:55;;;;;;;16.03;10.70;;;14.90;99.90;;;;;;5015588;28;20525;-49
2021/09/22 00:07:22;;;;;;;17.73;8.90;;;14.70;99.90;;;;;;5015059;28;20889;-51
2021/09/22 00:09:49;;;;;;;12.10;9.03;;;14.70;99.90;;;;;;5013359;28;21028;-48
2021/09/22 00:12:15;;;;;;;14.83;9.73;;;14.70;99.90;;;;;;5014850;28;20459;-48
2021/09/22 00:14:42;;;;;;;17.10;10.10;;;14.70;99.90;;;;;;5014883;28;20526;-48
2021/09/22 00:17:11;;;;;;;15.37;9.73;;;14.70;99.90;;;;;;5015066;28;20439;-47
2021/09/22 00:19:39;;;;;;;21.70;11.63;;;14.70;99.90;;;;;;5014481;28;20973;-49
2021/09/22 00:22:07;;;;;;;13.70;9.27;;;14.70;99.90;;;;;;5014739;28;20537;-48
2021/09/22 00:24:34;;;;;;;15.17;9.47;;;14.30;99.90;;;;;;5014647;28;20431;-48
2021/09/22 00:27:00;;;;;;;17.87;9.43;;;14.70;99.90;;;;;;5014680;28;20827;-48
2021/09/22 00:29:27;;;;;;;17.20;9.40;;;14.60;99.90;;;;;;5014334;28;20527;-48
2021/09/22 00:31:54;;;;;;;13.77;8.57;;;14.50;99.90;;;;;;5014607;28;20494;-47
2021/09/22 00:34:21;;;;;;;18.10;9.37;;;14.50;99.90;;;;;;5014623;28;20439;-49
2021/09/22 00:36:49;;;;;;;13.97;8.50;;;14.50;99.90;;;;;;5013425;28;20478;-48
2021/09/22 00:39:17;;;;;;;15.33;9.57;;;14.40;99.90;;;;;;5014015;28;20570;-48
2021/09/22 00:41:44;;;;;;;19.50;9.60;;;14.30;99.90;;;;;;5014132;28;20452;-48
2021/09/22 00:44:11;;;;;;;16.83;9.67;;;14.40;99.90;;;;;;5013084;28;20550;-48
2021/09/22 00:46:37;;;;;;;18.40;9.40;;;14.30;99.90;;;;;;5014312;28;20526;-48
2021/09/22 00:49:04;;;;;;;23.23;10.47;;;14.30;99.90;;;;;;5014077;28;20519;-48
2021/09/22 00:51:38;;;;;;;16.77;9.63;;;14.30;99.90;;;;;;5012429;28;20475;-52
2021/09/22 00:54:05;;;;;;;17.83;9.53;;;14.20;99.90;;;;;;5013151;28;20491;-52
2021/09/22 00:56:33;;;;;;;18.13;9.03;;;14.00;99.90;;;;;;5012900;28;20460;-51
2021/09/22 00:59:00;;;;;;;17.67;9.90;;;14.20;99.90;;;;;;5012322;28;21078;-51
2021/09/22 01:01:26;;;;;;;26.17;10.47;;;13.80;99.90;;;;;;5012819;28;20495;-51
2021/09/22 01:03:53;;;;;;;20.30;9.90;;;14.20;99.90;;;;;;5014097;28;20530;-50
2021/09/22 01:06:20;;;;;;;17.83;10.73;;;14.10;99.90;;;;;;5014002;28;20995;-51
2021/09/22 01:08:46;;;;;;;21.53;10.43;;;14.00;99.90;;;;;;5013636;28;20464;-51
2021/09/22 01:11:13;;;;;;;21.33;9.47;;;14.00;99.90;;;;;;5013849;28;20436;-52
2021/09/22 01:13:42;;;;;;;17.77;9.93;;;14.10;99.90;;;;;;5013949;28;20847;-51
2021/09/22 01:16:09;;;;;;;17.33;10.33;;;14.20;99.90;;;;;;5012510;28;21037;-52
2021/09/22 01:18:36;;;;;;;25.43;10.30;;;14.30;99.90;;;;;;5013736;28;20494;-50
2021/09/22 01:21:03;;;;;;;15.93;8.90;;;14.00;99.90;;;;;;5014775;28;20930;-50
2021/09/22 01:23:31;;;;;;;19.63;9.13;;;14.10;99.90;;;;;;5017055;28;20447;-52
2021/09/22 01:26:04;;;;;;;18.13;8.83;;;14.00;99.90;;;;;;5013704;28;20428;-50
2021/09/22 01:28:34;;;;;;;21.70;9.43;;;13.70;99.90;;;;;;5012029;28;20464;-51
2021/09/22 01:31:04;;;;;;;25.10;8.70;;;14.10;99.90;;;;;;5012366;28;20452;-51
2021/09/22 01:33:35;;;;;;;15.50;8.43;;;14.10;99.90;;;;;;5012308;28;20539;-52
2021/09/22 01:36:06;;;;;;;21.37;9.50;;;13.80;99.90;;;;;;5012202;28;20448;-51
2021/09/22 01:38:35;;;;;;;15.73;8.83;;;14.40;99.90;;;;;;5011622;28;20450;-52
2021/09/22 01:41:14;;;;;;;18.00;8.70;;;14.30;99.90;;;;;;5012071;28;20483;-51
2021/09/22 01:43:51;;;;;;;27.00;10.87;;;14.30;99.90;;;;;;5012172;28;20452;-52
2021/09/22 01:46:21;;;;;;;18.57;9.47;;;13.90;99.90;;;;;;5012152;28;20453;-51
2021/09/22 01:48:50;;;;;;;21.93;8.27;;;14.40;99.90;;;;;;5013037;28;20500;-51
2021/09/22 01:51:18;;;;;;;20.87;9.60;;;14.20;99.90;;;;;;5011586;28;20450;-51
2021/09/22 01:54:05;;;;;;;19.57;8.30;;;14.30;99.90;;;;;;5012030;28;20463;-51
2021/09/22 01:56:33;;;;;;;17.20;8.70;;;14.30;99.90;;;;;;5011738;28;20447;-51
2021/09/22 01:59:04;;;;;;;15.23;8.40;;;14.20;99.90;;;;;;5011458;28;20507;-52
2021/09/22 02:01:51;;;;;;;16.30;7.13;;;14.30;99.90;;;;;;5012744;28;20468;-51
2021/09/22 02:04:27;;;;;;;16.90;7.83;;;14.40;99.90;;;;;;5011797;28;20457;-52
2021/09/22 02:07:01;;;;;;;18.87;8.00;;;14.30;99.90;;;;;;5011620;28;20452;-50
2021/09/22 02:09:29;;;;;;;24.17;7.20;;;13.80;99.90;;;;;;5011397;28;20523;-51
2021/09/22 02:11:59;;;;;;;18.83;7.87;;;14.30;99.90;;;;;;5011654;28;21086;-50
2021/09/22 02:14:31;;;;;;;24.20;8.10;;;14.20;99.90;;;;;;5011648;28;20983;-51
2021/09/22 02:16:58;;;;;;;24.43;7.73;;;14.10;99.90;;;;;;5012877;28;20429;-51
2021/09/22 02:19:28;;;;;;;24.80;8.43;;;14.10;99.90;;;;;;5010961;28;20485;-50
2021/09/22 02:22:12;;;;;;;21.00;7.20;;;14.40;99.90;;;;;;5011531;28;20471;-51
2021/09/22 02:24:54;;;;;;;24.10;7.67;;;14.00;99.90;;;;;;5011560;28;20466;-52
2021/09/22 02:27:21;;;;;;;15.43;6.30;;;14.00;99.90;;;;;;5011282;28;20477;-52
2021/09/22 02:29:48;;;;;;;16.13;6.50;;;14.00;99.90;;;;;;5010920;28;20451;-51
2021/09/22 02:32:15;;;;;;;16.37;6.07;;;13.80;99.90;;;;;;5011041;28;21028;-51
2021/09/22 02:34:42;;;;;;;24.67;7.80;;;13.90;99.90;;;;;;5011404;28;20650;-51
2021/09/22 02:37:10;;;;;;;19.27;6.37;;;13.90;99.90;;;;;;5011214;28;20865;-52
2021/09/22 02:39:48;;;;;;;22.90;7.97;;;13.80;99.90;;;;;;5012620;28;20482;-50
2021/09/22 02:42:16;;;;;;;15.60;5.83;;;13.70;99.90;;;;;;5015870;28;20561;-51
2021/09/22 02:44:43;;;;;;;21.60;6.60;;;13.90;99.90;;;;;;5010889;28;21060;-52
2021/09/22 02:47:10;;;;;;;19.80;5.73;;;13.70;99.90;;;;;;5010987;28;20840;-50
2021/09/22 02:49:37;;;;;;;18.53;6.33;;;13.70;99.90;;;;;;5010670;28;20451;-51
2021/09/22 02:52:08;;;;;;;14.03;6.50;;;13.50;99.90;;;;;;5010829;28;20485;-51
2021/09/22 02:54:35;;;;;;;19.33;6.00;;;13.60;99.90;;;;;;5011255;28;20514;-51
2021/09/22 02:57:12;;;;;;;26.03;6.50;;;13.70;99.90;;;;;;5011045;28;20447;-50
2021/09/22 02:59:40;;;;;;;20.37;6.17;;;13.60;99.90;;;;;;5010408;28;20514;-51
2021/09/22 03:02:07;;;;;;;25.17;6.50;;;13.60;99.90;;;;;;5010737;28;20468;-52
2021/09/22 03:04:33;;;;;;;22.03;7.00;;;13.50;99.90;;;;;;5010815;28;20460;-52
2021/09/22 03:07:00;;;;;;;19.60;6.93;;;13.70;99.90;;;;;;5010599;28;20502;-51
2021/09/22 03:09:27;;;;;;;22.60;6.90;;;13.20;99.90;;;;;;5012124;28;20517;-51
2021/09/22 03:11:54;;;;;;;12.93;6.17;;;13.10;99.90;;;;;;5010630;28;21059;-52
2021/09/22 03:14:22;;;;;;;18.30;6.33;;;13.10;99.90;;;;;;5011821;28;20462;-51
2021/09/22 03:16:53;;;;;;;23.33;6.63;;;13.40;99.90;;;;;;5015186;28;20502;-51
2021/09/22 03:19:19;;;;;;;16.93;5.33;;;13.10;99.90;;;;;;5015300;28;20482;-51
2021/09/22 03:21:46;;;;;;;18.03;6.53;;;13.30;99.90;;;;;;5014570;28;20471;-50
2021/09/22 03:24:13;;;;;;;21.37;7.17;;;13.50;99.90;;;;;;5014456;28;20463;-52
2021/09/22 03:26:40;;;;;;;18.47;6.37;;;13.40;99.90;;;;;;5014605;28;20453;-52
2021/09/22 03:29:10;;;;;;;19.93;6.30;;;13.30;99.90;;;;;;5014332;28;20998;-52
2021/09/22 03:31:39;;;;;;;22.33;6.50;;;13.20;99.90;;;;;;5014421;28;20477;-52
2021/09/22 03:34:08;;;;;;;19.87;7.00;;;13.30;99.90;;;;;;5015677;28;20438;-52
2021/09/22 03:36:35;;;;;;;24.67;7.53;;;12.80;99.90;;;;;;5014330;28;20445;-53
2021/09/22 03:39:01;;;;;;;17.43;5.63;;;13.20;99.90;;;;;;5015126;28;20518;-51
2021/09/22 03:41:28;;;;;;;24.70;6.23;;;13.50;99.90;;;;;;5014237;28;20489;-51
2021/09/22 03:43:55;;;;;;;22.47;6.80;;;13.20;99.90;;;;;;5014183;28;20463;-51
2021/09/22 03:46:22;;;;;;;28.00;6.70;;;13.20;99.90;;;;;;5015555;28;20435;-51
2021/09/22 03:48:49;;;;;;;19.50;5.63;;;13.20;99.90;;;;;;5013798;28;20446;-52
2021/09/22 03:51:17;;;;;;;19.33;6.07;;;13.20;99.90;;;;;;5013808;28;20994;-51
2021/09/22 03:53:48;;;;;;;27.33;6.57;;;13.00;99.90;;;;;;5014197;28;21017;-50
2021/09/22 03:56:15;;;;;;;22.40;6.80;;;12.90;99.90;;;;;;5015121;28;20498;-52
2021/09/22 03:58:44;;;;;;;22.53;6.43;;;13.10;99.90;;;;;;5018070;28;20442;-52
2021/09/22 04:01:12;;;;;;;24.93;6.00;;;13.00;99.90;;;;;;5017271;28;20857;-51
2021/09/22 04:03:39;;;;;;;19.47;6.50;;;13.10;99.90;;;;;;5015159;28;20990;-52
2021/09/22 04:06:06;;;;;;;20.20;5.87;;;13.10;99.90;;;;;;5013578;28;20462;-51
2021/09/22 04:08:34;;;;;;;17.27;5.47;;;13.00;99.90;;;;;;5014603;28;20538;-52
2021/09/22 04:11:01;;;;;;;21.37;6.27;;;13.30;99.90;;;;;;5013777;28;20449;-52
2021/09/22 04:13:30;;;;;;;20.20;6.27;;;13.10;99.90;;;;;;5013782;28;20954;-52
2021/09/22 04:15:58;;;;;;;22.10;5.13;;;13.10;99.90;;;;;;5013789;28;20455;-51
2021/09/22 04:18:25;;;;;;;22.77;8.20;;;13.20;99.90;;;;;;5013391;28;20447;-51
2021/09/22 04:20:52;;;;;;;27.53;5.83;;;13.20;99.90;;;;;;5013599;28;20530;-52
2021/09/22 04:23:22;;;;;;;19.00;6.33;;;13.50;99.90;;;;;;5013309;28;20478;-51
2021/09/22 04:25:51;;;;;;;18.30;7.03;;;13.10;99.90;;;;;;5013352;28;20455;-52
2021/09/22 04:28:18;;;;;;;22.97;6.40;;;13.20;99.90;;;;;;5014463;28;20445;-52
2021/09/22 04:31:03;;;;;;;18.03;6.70;;;13.40;99.90;;;;;;5014983;28;20509;-51
2021/09/22 04:33:49;;;;;;;26.43;6.83;;;13.50;99.90;;;;;;5014537;28;20434;-52
2021/09/22 04:36:34;;;;;;;22.33;5.73;;;13.60;99.90;;;;;;5014475;28;20426;-52
2021/09/22 04:39:19;;;;;;;20.80;6.50;;;13.50;99.90;;;;;;5014218;28;20434;-52
2021/09/22 04:42:06;;;;;;;13.77;5.30;;;13.60;99.90;;;;;;5014225;28;20445;-52
2021/09/22 04:44:51;;;;;;;20.30;7.50;;;13.40;99.90;;;;;;5014921;28;20441;-51
2021/09/22 04:47:38;;;;;;;22.40;6.70;;;13.50;99.90;;;;;;5014135;28;20426;-52
2021/09/22 04:50:25;;;;;;;20.50;6.53;;;13.60;99.90;;;;;;5014626;28;20852;-52
2021/09/22 04:53:11;;;;;;;17.33;6.00;;;13.00;99.90;;;;;;5013963;28;20474;-51
2021/09/22 04:55:57;;;;;;;20.57;6.67;;;13.30;99.90;;;;;;5013948;28;20477;-52
2021/09/22 04:58:44;;;;;;;19.37;6.33;;;13.40;99.90;;;;;;5014272;28;20834;-51
2021/09/22 05:01:30;;;;;;;31.83;6.47;;;13.10;99.90;;;;;;5013704;28;20577;-51
2021/09/22 05:04:16;;;;;;;22.43;7.60;;;13.40;99.90;;;;;;5013800;28;20940;-51
2021/09/22 05:07:01;;;;;;;25.77;6.93;;;13.30;99.90;;;;;;5014462;28;20642;-51
2021/09/22 05:09:47;;;;;;;15.30;5.67;;;13.30;99.90;;;;;;5013877;28;20771;-52
2021/09/22 05:12:33;;;;;;;21.50;6.80;;;13.20;99.90;;;;;;5013730;28;20813;-52
2021/09/22 05:15:19;;;;;;;17.67;6.17;;;13.00;99.90;;;;;;5013806;28;20426;-52
2021/09/22 05:18:05;;;;;;;28.97;6.97;;;13.20;99.90;;;;;;5016980;28;20435;-52
2021/09/22 05:20:50;;;;;;;25.90;7.50;;;13.40;99.90;;;;;;5014129;28;20469;-52
2021/09/22 05:23:36;;;;;;;19.10;6.80;;;13.50;99.90;;;;;;5013856;28;20432;-52
2021/09/22 05:26:21;;;;;;;26.90;7.27;;;13.70;99.90;;;;;;5013669;28;21018;-52
2021/09/22 05:29:07;;;;;;;21.83;8.27;;;13.50;99.90;;;;;;5012688;28;20903;-52
2021/09/22 05:31:54;;;;;;;24.63;7.73;;;13.30;99.90;;;;;;5013367;28;20967;-51
2021/09/22 05:34:39;;;;;;;22.30;7.37;;;13.80;99.90;;;;;;5012703;28;20892;-52
2021/09/22 05:37:26;;;;;;;25.80;6.90;;;13.30;99.90;;;;;;5012608;28;20917;-52
2021/09/22 05:40:12;;;;;;;20.97;7.30;;;13.50;99.90;;;;;;5012792;28;21005;-51
2021/09/22 05:42:58;;;;;;;27.93;7.80;;;13.60;99.90;;;;;;5013017;28;20458;-52
2021/09/22 05:45:43;;;;;;;20.93;7.30;;;13.80;99.90;;;;;;5012490;28;20557;-52
2021/09/22 05:48:30;;;;;;;21.00;8.20;;;13.80;99.90;;;;;;5012657;28;20430;-51
2021/09/22 05:51:16;;;;;;;29.10;8.77;;;13.40;99.90;;;;;;5012047;28;20430;-50
2021/09/22 05:54:01;;;;;;;30.07;7.97;;;13.50;99.90;;;;;;5011228;28;20666;-51
2021/09/22 05:56:47;;;;;;;21.63;7.40;;;13.60;99.90;;;;;;5012794;28;20451;-51
2021/09/22 05:59:32;;;;;;;16.10;6.63;;;13.20;99.90;;;;;;5012496;28;20561;-51
2021/09/22 06:02:18;;;;;;;27.70;8.83;;;13.60;99.90;;;;;;5013463;28;20442;-51
2021/09/22 06:05:06;;;;;;;23.10;8.53;;;13.70;99.90;;;;;;5012781;28;20429;-52
2021/09/22 06:07:51;;;;;;;23.87;7.33;;;13.70;99.90;;;;;;5012252;28;20826;-52
2021/09/22 06:10:38;;;;;;;20.03;7.57;;;13.70;99.90;;;;;;5012643;28;20422;-51
2021/09/22 06:13:28;;;;;;;31.13;8.90;;;13.90;99.90;;;;;;5004047;28;20561;-52
2021/09/22 06:15:55;;;;;;;23.13;9.20;;;13.50;99.90;;;;;;5010972;28;20448;-52
2021/09/22 06:18:21;;;;;;;25.27;11.60;;;13.80;99.90;;;;;;5010175;28;20454;-52
2021/09/22 06:20:50;;;;;;;29.77;7.87;;;13.90;99.90;;;;;;5011993;28;20557;-52
2021/09/22 06:23:16;;;;;;;24.43;8.90;;;14.00;99.90;;;;;;5012033;28;20881;-51
2021/09/22 06:25:46;;;;;;;21.57;7.60;;;13.80;99.90;;;;;;5010880;28;20510;-52
2021/09/22 06:28:12;;;;;;;26.33;7.80;;;14.00;99.90;;;;;;5011484;28;20409;-51
2021/09/22 06:30:40;;;;;;;27.50;7.87;;;14.00;99.90;;;;;;5010483;28;21013;-52
2021/09/22 06:33:07;;;;;;;28.17;8.93;;;14.10;99.90;;;;;;5010654;28;20439;-50
2021/09/22 06:36:00;;;;;;;19.27;7.70;;;14.00;99.90;;;;;;5011210;28;20990;-51
2021/09/22 06:38:29;;;;;;;34.03;8.70;;;14.10;99.90;;;;;;5013326;28;20880;-52
2021/09/22 06:41:00;;;;;;;30.97;8.87;;;14.10;99.90;;;;;;5010566;28;20505;-52
2021/09/22 06:43:29;;;;;;;26.43;8.37;;;14.10;99.90;;;;;;5010344;28;20478;-51
2021/09/22 06:45:56;;;;;;;24.53;8.80;;;14.20;99.90;;;;;;5010667;28;20517;-52
2021/09/22 06:48:23;;;;;;;27.33;9.10;;;14.20;99.90;;;;;;5011055;28;20985;-51
2021/09/22 06:50:49;;;;;;;25.43;7.43;;;14.20;99.90;;;;;;5012356;28;20466;-51
2021/09/22 06:53:20;;;;;;;31.60;8.17;;;14.20;99.90;;;;;;5012139;28;20473;-48
2021/09/22 06:55:49;;;;;;;31.40;8.60;;;14.30;99.90;;;;;;5012555;28;20514;-49
2021/09/22 06:58:15;;;;;;;23.87;9.70;;;14.30;99.90;;;;;;5011935;28;20993;-47
2021/09/22 07:00:44;;;;;;;23.40;9.07;;;14.30;99.90;;;;;;5010979;28;20876;-47
2021/09/22 07:03:14;;;;;;;30.03;9.20;;;14.20;99.90;;;;;;5012352;28;20550;-48
2021/09/22 07:05:42;;;;;;;28.17;8.33;;;14.40;99.90;;;;;;5011742;28;20442;-48
2021/09/22 07:08:09;;;;;;;28.07;8.43;;;14.40;99.90;;;;;;5011396;28;20928;-47
2021/09/22 07:10:38;;;;;;;24.83;7.80;;;14.40;99.90;;;;;;5010270;28;20462;-48
2021/09/22 07:13:05;;;;;;;25.20;6.93;;;14.50;99.90;;;;;;5011623;28;20510;-48
2021/09/22 07:15:32;;;;;;;31.17;8.67;;;14.50;99.90;;;;;;5011563;28;20910;-47
2021/09/22 07:17:59;;;;;;;23.83;8.67;;;14.30;99.90;;;;;;5011338;28;20519;-48
2021/09/22 07:20:27;;;;;;;25.87;7.43;;;14.80;99.90;;;;;;5010033;28;20501;-48
2021/09/22 07:22:54;;;;;;;21.40;6.93;;;14.70;99.90;;;;;;5011140;28;20610;-48
2021/09/22 07:25:21;;;;;;;23.60;8.40;;;14.80;99.90;;;;;;5010943;28;20534;-47
2021/09/22 07:27:49;;;;;;;22.17;7.83;;;14.60;99.90;;;;;;5010460;28;20431;-47
2021/09/22 07:30:16;;;;;;;32.83;7.80;;;14.70;99.90;;;;;;5009451;28;20480;-48
2021/09/22 07:32:44;;;;;;;30.57;7.73;;;14.70;99.90;;;;;;5009421;28;20467;-47
2021/09/22 07:35:13;;;;;;;23.00;7.40;;;14.40;99.90;;;;;;5011411;28;20464;-48
2021/09/22 07:37:41;;;;;;;21.27;7.33;;;14.80;99.90;;;;;;5010761;28;20534;-51
2021/09/22 07:40:10;;;;;;;29.57;7.10;;;14.80;99.90;;;;;;5009756;28;20455;-48
2021/09/22 07:42:36;;;;;;;21.77;6.80;;;15.00;99.90;;;;;;5010671;28;20540;-48
2021/09/22 07:45:06;;;;;;;24.10;7.20;;;14.80;99.90;;;;;;5010876;28;20533;-48
2021/09/22 07:47:33;;;;;;;28.77;7.67;;;14.80;99.90;;;;;;5009458;28;20460;-47
2021/09/22 07:50:00;;;;;;;20.23;7.20;;;14.80;99.90;;;;;;5010855;28;20436;-47
2021/09/22 07:52:26;;;;;;;29.10;8.67;;;14.80;99.90;;;;;;5010831;28;20522;-46
2021/09/22 07:54:53;;;;;;;27.57;7.60;;;14.90;99.90;;;;;;5012452;28;20432;-47
2021/09/22 07:57:20;;;;;;;20.03;6.20;;;14.90;99.90;;;;;;5014366;28;20435;-46
2021/09/22 07:59:47;;;;;;;28.67;7.37;;;15.00;99.90;;;;;;5011060;28;20439;-47
2021/09/22 08:02:17;;;;;;;25.47;7.67;;;15.00;99.90;;;;;;5013004;28;20479;-47
2021/09/22 08:04:44;;;;;;;19.83;7.07;;;15.20;99.90;;;;;;5013480;28;20452;-48
2021/09/22 08:07:11;;;;;;;33.80;7.40;;;15.10;99.90;;;;;;5014428;28;20530;-48
2021/09/22 08:09:38;;;;;;;19.43;6.77;;;15.20;99.90;;;;;;5013801;28;20463;-47
2021/09/22 08:12:05;;;;;;;26.07;8.40;;;15.20;99.90;;;;;;5014446;28;20460;-47
2021/09/22 08:14:33;;;;;;;33.20;8.33;;;15.20;99.90;;;;;;5014315;28;20438;-46
2021/09/22 08:17:00;;;;;;;20.30;7.20;;;15.20;99.90;;;;;;5014210;28;20444;-49
2021/09/22 08:19:28;;;;;;;23.07;7.03;;;15.20;99.90;;;;;;5013854;28;20428;-47
2021/09/22 08:21:55;;;;;;;22.37;7.43;;;15.30;99.90;;;;;;5014195;28;20904;-47
2021/09/22 08:24:22;;;;;;;21.27;7.03;;;15.30;99.90;;;;;;5014468;28;20435;-48
2021/09/22 08:26:52;;;;;;;24.13;7.43;;;15.20;99.90;;;;;;5012935;28;20829;-48
2021/09/22 08:29:19;;;;;;;20.30;6.70;;;15.30;99.90;;;;;;5012597;28;20448;-49
2021/09/22 08:31:46;;;;;;;24.77;7.90;;;15.30;99.90;;;;;;5014073;28;20502;-48
2021/09/22 08:34:13;;;;;;;22.80;7.27;;;15.50;99.90;;;;;;5012725;28;20452;-47
2021/09/22 08:36:43;;;;;;;23.87;7.57;;;15.50;99.90;;;;;;5013343;28;20464;-49
2021/09/22 08:39:10;;;;;;;23.60;7.37;;;15.50;99.90;;;;;;5013325;28;20846;-48
2021/09/22 08:41:37;;;;;;;28.10;8.40;;;15.40;99.90;;;;;;5011926;28;20476;-48
2021/09/22 08:44:05;;;;;;;21.53;7.50;;;15.40;99.90;;;;;;5013793;28;20527;-49
2021/09/22 08:46:32;;;;;;;26.67;7.80;;;15.60;99.90;;;;;;5014063;28;20435;-49
2021/09/22 08:49:00;;;;;;;23.63;7.50;;;15.80;99.90;;;;;;5012370;28;20444;-47
2021/09/22 08:51:27;;;;;;;20.73;7.50;;;15.40;99.90;;;;;;5012920;28;20469;-48
2021/09/22 08:53:55;;;;;;;26.50;7.60;;;15.60;99.90;;;;;;5012629;28;20539;-47
2021/09/22 08:56:22;;;;;;;26.07;6.97;;;15.70;99.90;;;;;;5012524;28;20552;-47
2021/09/22 08:58:50;;;;;;;27.13;7.43;;;15.80;99.90;;;;;;5012922;28;20464;-48
2021/09/22 09:01:20;;;;;;;20.40;6.60;;;15.80;99.90;;;;;;5013725;28;20472;-48
2021/09/22 09:03:48;;;;;;;34.70;8.63;;;15.90;99.90;;;;;;5013027;28;20439;-48
2021/09/22 09:06:19;;;;;;;23.27;6.57;;;15.90;99.90;;;;;;5013320;28;20433;-46
2021/09/22 09:08:47;;;;;;;22.40;6.60;;;16.00;99.90;;;;;;5011726;28;20456;-47
2021/09/22 09:11:24;;;;;;;26.90;6.93;;;15.90;99.90;;;;;;5011445;28;20440;-47
2021/09/22 09:13:52;;;;;;;18.03;6.23;;;16.10;99.90;;;;;;5013226;28;20532;-48
2021/09/22 09:16:23;;;;;;;29.87;7.40;;;16.20;99.90;;;;;;5014796;28;20455;-47
2021/09/22 09:18:53;;;;;;;24.00;7.03;;;16.20;99.90;;;;;;5012439;28;20768;-48
2021/09/22 09:21:20;;;;;;;18.27;5.80;;;16.30;99.90;;;;;;5011496;28;20488;-48
2021/09/22 09:23:53;;;;;;;23.83;6.03;;;16.30;99.90;;;;;;5011338;28;20457;-48
2021/09/22 09:26:25;;;;;;;20.47;6.70;;;16.30;99.90;;;;;;5013163;28;20495;-48
2021/09/22 09:28:55;;;;;;;14.50;6.00;;;16.40;99.90;;;;;;5013081;28;20457;-47
2021/09/22 09:31:22;;;;;;;27.43;6.50;;;16.50;99.90;;;;;;5012762;28;20619;-48
2021/09/22 09:33:52;;;;;;;15.87;6.30;;;16.50;99.90;;;;;;5013147;28;20435;-47
2021/09/22 09:36:28;;;;;;;15.43;6.23;;;16.60;99.90;;;;;;5012839;28;20457;-48
2021/09/22 09:38:59;;;;;;;27.27;7.00;;;16.60;99.90;;;;;;5012790;28;20470;-50
2021/09/22 09:41:42;;;;;;;27.23;6.27;;;16.50;99.90;;;;;;5012519;28;20487;-49
2021/09/22 09:44:16;;;;;;;14.97;5.73;;;16.60;99.90;;;;;;5012800;28;20496;-48
2021/09/22 09:46:43;;;;;;;19.87;5.50;;;16.50;99.90;;;;;;5012989;28;20440;-47
2021/09/22 09:49:11;;;;;;;23.30;6.37;;;16.60;99.90;;;;;;5011276;28;20452;-49
2021/09/22 09:51:43;;;;;;;21.20;6.43;;;16.50;99.90;;;;;;5012461;28;20478;-48
2021/09/22 09:54:19;;;;;;;29.03;7.53;;;16.50;99.90;;;;;;5012544;28;20449;-47
2021/09/22 09:56:49;;;;;;;17.90;5.53;;;16.50;99.90;;;;;;5012402;28;20486;-48
2021/09/22 09:59:17;;;;;;;23.23;6.10;;;16.50;99.90;;;;;;5012263;28;20459;-49
2021/09/22 10:01:45;;;;;;;22.87;6.77;;;16.60;99.90;;;;;;5012177;28;21053;-48
2021/09/22 10:04:16;;;;;;;15.33;4.93;;;16.60;99.90;;;;;;5012466;28;20506;-47
2021/09/22 10:06:44;;;;;;;15.83;5.50;;;16.60;99.90;;;;;;5012481;28;20503;-48
2021/09/22 10:09:11;;;;;;;17.50;5.33;;;16.60;99.90;;;;;;5012003;28;20532;-47
2021/09/22 10:11:41;;;;;;;17.90;5.27;;;16.70;99.90;;;;;;5012517;28;20462;-47
2021/09/22 10:14:09;;;;;;;20.80;5.93;;;16.60;99.90;;;;;;5012088;28;20915;-48
2021/09/22 10:16:37;;;;;;;26.30;5.37;;;16.60;99.90;;;;;;5012152;28;21003;-48
2021/09/22 10:19:06;;;;;;;21.43;5.83;;;16.70;99.90;;;;;;5010561;28;20887;-50
2021/09/22 10:21:34;;;;;;;18.03;6.17;;;16.70;99.90;;;;;;5012025;28;20531;-49
2021/09/22 10:24:04;;;;;;;16.17;5.67;;;16.80;99.90;;;;;;5012212;28;20951;-48
2021/09/22 10:26:33;;;;;;;18.73;5.13;;;17.00;99.90;;;;;;5012313;28;20528;-50
2021/09/22 10:29:00;;;;;;;25.63;5.87;;;17.10;99.90;;;;;;5011673;28;20440;-48
2021/09/22 10:31:37;;;;;;;17.20;4.90;;;17.20;99.90;;;;;;5011295;28;20461;-49
2021/09/22 10:34:05;;;;;;;20.97;5.60;;;17.30;99.90;;;;;;5016790;28;20452;-47
2021/09/22 10:36:38;;;;;;;22.57;5.43;;;17.40;99.90;;;;;;5011805;28;20437;-47
2021/09/22 10:39:06;;;;;;;18.40;4.87;;;17.50;99.90;;;;;;5011403;28;20484;-49
2021/09/22 10:41:40;;;;;;;25.27;6.80;;;17.50;99.90;;;;;;5011385;28;20463;-49
2021/09/22 10:44:10;;;;;;;20.60;5.00;;;17.60;99.90;;;;;;5010279;28;20468;-47
2021/09/22 10:46:38;;;;;;;21.23;5.77;;;17.60;99.90;;;;;;5010523;28;20535;-48
2021/09/22 10:49:14;;;;;;;24.60;5.87;;;17.70;99.90;;;;;;5010871;28;20439;-49
2021/09/22 10:51:46;;;;;;;11.10;4.80;;;17.70;99.90;;;;;;5009987;28;20490;-48
2021/09/22 10:54:18;;;;;;;19.10;5.53;;;17.80;99.90;;;;;;5011548;28;20438;-49
2021/09/22 10:56:54;;;;;;;16.20;5.80;;;17.90;99.90;;;;;;5010923;28;20458;-48
2021/09/22 10:59:37;;;;;;;22.33;5.87;;;17.90;99.90;;;;;;5009368;28;20825;-47
2021/09/22 11:02:07;;;;;;;19.10;5.00;;;18.00;99.90;;;;;;5009989;28;20479;-48
2021/09/22 11:04:55;;;;;;;14.47;4.53;;;18.10;99.90;;;;;;5010743;28;20451;-47
2021/09/22 11:07:22;;;;;;;14.60;4.90;;;18.00;99.90;;;;;;5009392;28;20454;-49
2021/09/22 11:09:50;;;;;;;18.57;4.87;;;17.90;99.90;;;;;;5009821;28;20450;-50
2021/09/22 11:12:17;;;;;;;14.40;4.03;;;17.90;99.90;;;;;;5011283;28;20469;-50
2021/09/22 11:14:46;;;;;;;17.87;4.93;;;17.90;99.90;;;;;;5011271;28;20799;-50
2021/09/22 11:17:17;;;;;;;22.00;6.40;;;17.90;99.90;;;;;;5010106;28;20542;-50
2021/09/22 11:19:45;;;;;;;14.97;4.80;;;18.00;99.90;;;;;;5011357;28;20492;-50
2021/09/22 11:22:14;;;;;;;16.23;5.10;;;18.10;99.90;;;;;;5009658;28;20491;-50
2021/09/22 11:24:42;;;;;;;15.83;5.33;;;18.10;99.90;;;;;;5010196;28;20459;-49
2021/09/22 11:27:11;;;;;;;18.23;5.50;;;18.20;99.90;;;;;;5009930;28;20460;-49
2021/09/22 11:29:42;;;;;;;15.70;5.40;;;18.20;99.90;;;;;;5010246;28;20444;-50
2021/09/22 11:32:26;;;;;;;17.80;6.00;;;18.30;99.90;;;;;;5011298;28;20792;-50
2021/09/22 11:34:58;;;;;;;11.90;3.90;;;17.90;99.90;;;;;;5012069;28;20655;-50
2021/09/22 11:37:33;;;;;;;22.60;5.57;;;18.30;99.90;;;;;;5014114;28;20459;-50
2021/09/22 11:40:12;;;;;;;15.30;4.30;;;18.20;99.90;;;;;;5014855;28;20537;-50
2021/09/22 11:42:41;;;;;;;18.23;4.90;;;18.30;99.90;;;;;;5014989;28;20479;-50
2021/09/22 11:45:09;;;;;;;15.47;4.53;;;18.00;99.90;;;;;;5013983;28;20451;-50
2021/09/22 11:47:46;;;;;;;15.50;4.60;;;18.10;99.90;;;;;;5013361;28;20903;-49
2021/09/22 11:50:24;;;;;;;16.53;4.27;;;18.00;99.90;;;;;;5017650;28;20793;-49
2021/09/22 11:52:53;;;;;;;11.37;4.20;;;17.80;99.90;;;;;;5014615;28;20482;-50
2021/09/22 11:55:20;;;;;;;15.63;4.60;;;17.70;99.90;;;;;;5009260;28;21034;-50
2021/09/22 11:57:47;;;;;;;12.83;4.10;;;17.70;99.90;;;;;;5014689;28;20533;-49
2021/09/22 12:00:18;;;;;;;19.57;5.07;;;17.80;99.90;;;;;;5000472;28;20871;-49
2021/09/22 12:02:46;;;;;;;20.13;5.43;;;17.90;99.90;;;;;;4995582;28;20529;-48
2021/09/22 12:05:14;;;;;;;14.87;4.73;;;18.00;99.90;;;;;;5014262;28;20443;-50
2021/09/22 12:07:41;;;;;;;16.40;4.50;;;18.20;99.90;;;;;;5014760;28;20787;-49
2021/09/22 12:10:13;;;;;;;11.70;4.30;;;18.30;99.90;;;;;;5013848;28;20497;-49
2021/09/22 12:12:40;;;;;;;17.30;4.53;;;18.40;99.90;;;;;;5004009;28;20977;-49
2021/09/22 12:15:10;;;;;;;13.97;4.40;;;18.50;99.90;;;;;;4994487;28;20441;-49
2021/09/22 12:17:39;;;;;;;20.17;4.93;;;18.60;99.90;;;;;;4994368;28;20945;-50
2021/09/22 12:20:10;;;;;;;10.70;4.07;;;18.60;99.90;;;;;;4994602;28;20791;-50
2021/09/22 12:22:39;;;;;;;13.37;4.17;;;18.50;99.90;;;;;;4993612;28;20487;-50
2021/09/22 12:25:08;;;;;;;15.80;4.80;;;18.50;99.90;;;;;;4993443;28;20444;-49
2021/09/22 12:27:36;;;;;;;11.97;3.63;;;18.50;99.90;;;;;;4994698;28;20459;-49
2021/09/22 12:30:07;;;;;;;13.90;4.13;;;18.80;99.90;;;;;;5006654;28;20490;-50
2021/09/22 12:32:51;;;;;;;12.50;4.80;;;18.50;99.90;;;;;;5014260;28;20462;-50
2021/09/22 12:35:23;;;;;;;11.30;3.97;;;18.40;99.90;;;;;;5014792;28;20430;-49
2021/09/22 12:37:53;;;;;;;14.77;4.03;;;18.40;99.90;;;;;;5012922;28;20467;-50
2021/09/22 12:40:28;;;;;;;16.87;5.80;;;18.30;99.90;;;;;;5014437;28;20481;-49
2021/09/22 12:42:59;;;;;;;13.97;4.50;;;18.30;99.90;;;;;;5006694;28;20544;-50
2021/09/22 12:45:28;;;;;;;11.00;3.77;;;18.30;99.90;;;;;;4998004;28;20505;-48
2021/09/22 12:47:57;;;;;;;14.30;4.07;;;18.40;99.90;;;;;;5011998;28;20444;-49
2021/09/22 12:50:31;;;;;;;13.27;4.30;;;18.30;99.90;;;;;;5003554;28;20512;-49
2021/09/22 12:53:05;;;;;;;21.70;5.10;;;18.30;99.90;;;;;;5007582;28;20475;-49
2021/09/22 12:55:32;;;;;;;17.50;4.33;;;18.40;99.90;;;;;;5013666;28;20435;-48